sensor_id;sensor_type;location;lat;lon;timestamp;temperature;humidity
28171;DHT22;15458;53.346;-1.688;2023-01-05T00:01:12;9.40;99.90
28171;DHT22;15458;53.346;-1.688;2023-01-05T00:03:39;9.40;99.90
28171;DHT22;15458;53.346;-1.688;2023-01-05T00:06:08;9.40;99.90
28171;DHT22;15458;53.346;-1.688;2023-01-05T00:08:34;9.40;99.90
28171;DHT22;15458;53.346;-1.688;2023-01-05T00:11:23;9.40;99.90
28171;DHT22;15458;53.346;-1.688;2023-01-05T00:14:16;9.40;99.90
28171;DHT22;15458;53.346;-1.688;2023-01-05T00:17:00;9.40;99.90
28171;DHT22;15458;53.346;-1.688;2023-01-05T00:19:45;9.40;99.90
28171;DHT22;15458;53.346;-1.688;2023-01-05T00:22:29;9.40;99.90
28171;DHT22;15458;53.346;-1.688;2023-01-05T00:24:57;9.40;99.90
28171;DHT22;15458;53.346;-1.688;2023-01-05T00:27:23;9.40;99.90
28171;DHT22;15458;53.346;-1.688;2023-01-05T00:29:49;9.40;99.90
28171;DHT22;15458;53.346;-1.688;2023-01-05T00:32:14;9.40;99.90
28171;DHT22;15458;53.346;-1.688;2023-01-05T00:34:40;9.40;99.90
28171;DHT22;15458;53.346;-1.688;2023-01-05T00:37:06;9.40;99.90
28171;DHT22;15458;53.346;-1.688;2023-01-05T00:39:31;9.40;99.90
28171;DHT22;15458;53.346;-1.688;2023-01-05T00:41:57;9.40;99.90
28171;DHT22;15458;53.346;-1.688;2023-01-05T00:44:22;9.40;99.90
28171;DHT22;15458;53.346;-1.688;2023-01-05T00:46:48;9.40;99.90
28171;DHT22;15458;53.346;-1.688;2023-01-05T00:49:14;9.40;99.90
28171;DHT22;15458;53.346;-1.688;2023-01-05T00:51:39;9.40;99.90
28171;DHT22;15458;53.346;-1.688;2023-01-05T00:54:05;9.40;99.90
28171;DHT22;15458;53.346;-1.688;2023-01-05T00:56:31;9.40;99.90
28171;DHT22;15458;53.346;-1.688;2023-01-05T00:58:57;9.30;99.90
28171;DHT22;15458;53.346;-1.688;2023-01-05T01:01:22;9.30;99.90
28171;DHT22;15458;53.346;-1.688;2023-01-05T01:03:48;9.30;99.90
28171;DHT22;15458;53.346;-1.688;2023-01-05T01:06:14;9.30;99.90
28171;DHT22;15458;53.346;-1.688;2023-01-05T01:08:40;9.30;99.90
28171;DHT22;15458;53.346;-1.688;2023-01-05T01:11:07;9.30;99.90
28171;DHT22;15458;53.346;-1.688;2023-01-05T01:13:33;9.30;99.90
28171;DHT22;15458;53.346;-1.688;2023-01-05T01:16:13;9.30;99.90
28171;DHT22;15458;53.346;-1.688;2023-01-05T01:18:40;9.30;99.90
28171;DHT22;15458;53.346;-1.688;2023-01-05T01:21:06;9.30;99.90
28171;DHT22;15458;53.346;-1.688;2023-01-05T01:23:32;9.30;99.90
28171;DHT22;15458;53.346;-1.688;2023-01-05T01:26:05;9.30;99.90
28171;DHT22;15458;53.346;-1.688;2023-01-05T01:28:31;9.30;99.90
28171;DHT22;15458;53.346;-1.688;2023-01-05T01:30:57;9.30;99.90
28171;DHT22;15458;53.346;-1.688;2023-01-05T01:33:23;9.30;99.90
28171;DHT22;15458;53.346;-1.688;2023-01-05T01:35:48;9.30;99.90
28171;DHT22;15458;53.346;-1.688;2023-01-05T01:38:14;9.30;99.90
28171;DHT22;15458;53.346;-1.688;2023-01-05T01:40:41;9.30;99.90
28171;DHT22;15458;53.346;-1.688;2023-01-05T01:43:13;9.30;99.90
28171;DHT22;15458;53.346;-1.688;2023-01-05T01:45:39;9.30;99.90
28171;DHT22;15458;53.346;-1.688;2023-01-05T01:48:05;9.30;99.90
28171;DHT22;15458;53.346;-1.688;2023-01-05T01:50:40;9.30;99.90
28171;DHT22;15458;53.346;-1.688;2023-01-05T01:53:34;9.30;99.90
28171;DHT22;15458;53.346;-1.688;2023-01-05T01:56:00;9.30;99.90
28171;DHT22;15458;53.346;-1.688;2023-01-05T01:58:29;9.30;99.90
28171;DHT22;15458;53.346;-1.688;2023-01-05T02:00:57;9.30;99.90
28171;DHT22;15458;53.346;-1.688;2023-01-05T02:03:26;9.30;99.90
28171;DHT22;15458;53.346;-1.688;2023-01-05T02:05:53;9.30;99.90
28171;DHT22;15458;53.346;-1.688;2023-01-05T02:08:19;9.30;99.90
28171;DHT22;15458;53.346;-1.688;2023-01-05T02:19:42;9.30;99.90
28171;DHT22;15458;53.346;-1.688;2023-01-05T02:28:05;9.30;99.90
28171;DHT22;15458;53.346;-1.688;2023-01-05T02:38:57;9.30;99.90
28171;DHT22;15458;53.346;-1.688;2023-01-05T02:41:30;9.30;99.90
28171;DHT22;15458;53.346;-1.688;2023-01-05T02:43:57;9.20;99.90
28171;DHT22;15458;53.346;-1.688;2023-01-05T02:46:24;9.20;99.90
28171;DHT22;15458;53.346;-1.688;2023-01-05T02:48:51;9.30;99.90
28171;DHT22;15458;53.346;-1.688;2023-01-05T02:51:24;9.20;99.90
28171;DHT22;15458;53.346;-1.688;2023-01-05T02:54:05;9.20;99.90
28171;DHT22;15458;53.346;-1.688;2023-01-05T02:56:49;9.20;99.90
28171;DHT22;15458;53.346;-1.688;2023-01-05T02:59:38;9.20;99.90
28171;DHT22;15458;53.346;-1.688;2023-01-05T03:02:08;9.10;99.90
28171;DHT22;15458;53.346;-1.688;2023-01-05T03:04:50;9.10;99.90
28171;DHT22;15458;53.346;-1.688;2023-01-05T03:07:23;9.10;99.90
28171;DHT22;15458;53.346;-1.688;2023-01-05T03:09:50;9.10;99.90
28171;DHT22;15458;53.346;-1.688;2023-01-05T03:12:27;9.10;99.90
28171;DHT22;15458;53.346;-1.688;2023-01-05T03:15:21;9.10;99.90
28171;DHT22;15458;53.346;-1.688;2023-01-05T03:17:51;9.10;99.90
28171;DHT22;15458;53.346;-1.688;2023-01-05T03:20:24;9.10;99.90
28171;DHT22;15458;53.346;-1.688;2023-01-05T03:22:51;9.10;99.90
28171;DHT22;15458;53.346;-1.688;2023-01-05T03:25:38;9.10;99.90
28171;DHT22;15458;53.346;-1.688;2023-01-05T03:28:37;9.10;99.90
28171;DHT22;15458;53.346;-1.688;2023-01-05T03:34:15;9.10;99.90
28171;DHT22;15458;53.346;-1.688;2023-01-05T03:37:11;9.10;99.90
28171;DHT22;15458;53.346;-1.688;2023-01-05T03:39:40;9.10;99.90
28171;DHT22;15458;53.346;-1.688;2023-01-05T03:42:09;9.00;99.90
28171;DHT22;15458;53.346;-1.688;2023-01-05T03:44:38;9.00;99.90
28171;DHT22;15458;53.346;-1.688;2023-01-05T03:47:05;9.00;99.90
28171;DHT22;15458;53.346;-1.688;2023-01-05T03:49:31;9.00;99.90
28171;DHT22;15458;53.346;-1.688;2023-01-05T03:51:57;9.00;99.90
28171;DHT22;15458;53.346;-1.688;2023-01-05T03:54:22;9.00;99.90
28171;DHT22;15458;53.346;-1.688;2023-01-05T03:56:48;9.00;99.90
28171;DHT22;15458;53.346;-1.688;2023-01-05T03:59:14;9.00;99.90
28171;DHT22;15458;53.346;-1.688;2023-01-05T04:01:39;9.00;99.90
28171;DHT22;15458;53.346;-1.688;2023-01-05T04:04:05;9.00;99.90
28171;DHT22;15458;53.346;-1.688;2023-01-05T04:06:31;9.00;99.90
28171;DHT22;15458;53.346;-1.688;2023-01-05T04:08:56;9.00;99.90
28171;DHT22;15458;53.346;-1.688;2023-01-05T04:11:23;9.00;99.90
28171;DHT22;15458;53.346;-1.688;2023-01-05T04:13:49;9.00;99.90
28171;DHT22;15458;53.346;-1.688;2023-01-05T04:16:15;9.00;99.90
28171;DHT22;15458;53.346;-1.688;2023-01-05T04:18:41;8.90;99.90
28171;DHT22;15458;53.346;-1.688;2023-01-05T04:21:07;8.90;99.90
28171;DHT22;15458;53.346;-1.688;2023-01-05T04:23:33;8.90;99.90
28171;DHT22;15458;53.346;-1.688;2023-01-05T04:25:59;8.90;99.90
28171;DHT22;15458;53.346;-1.688;2023-01-05T04:28:25;8.90;99.90
28171;DHT22;15458;53.346;-1.688;2023-01-05T04:30:52;8.90;99.90
28171;DHT22;15458;53.346;-1.688;2023-01-05T04:33:19;8.90;99.90
28171;DHT22;15458;53.346;-1.688;2023-01-05T04:35:45;8.90;99.90
28171;DHT22;15458;53.346;-1.688;2023-01-05T04:38:11;9.00;99.90
28171;DHT22;15458;53.346;-1.688;2023-01-05T04:40:37;8.90;99.90
28171;DHT22;15458;53.346;-1.688;2023-01-05T04:43:03;8.90;99.90
28171;DHT22;15458;53.346;-1.688;2023-01-05T04:45:29;8.90;99.90
28171;DHT22;15458;53.346;-1.688;2023-01-05T04:47:55;9.00;99.90
28171;DHT22;15458;53.346;-1.688;2023-01-05T04:50:20;8.90;99.90
28171;DHT22;15458;53.346;-1.688;2023-01-05T04:52:46;8.90;99.90
28171;DHT22;15458;53.346;-1.688;2023-01-05T04:55:12;8.90;99.90
28171;DHT22;15458;53.346;-1.688;2023-01-05T04:57:37;8.90;99.90
28171;DHT22;15458;53.346;-1.688;2023-01-05T05:00:03;8.90;99.90
28171;DHT22;15458;53.346;-1.688;2023-01-05T05:02:30;8.90;99.90
28171;DHT22;15458;53.346;-1.688;2023-01-05T05:04:55;8.90;99.90
28171;DHT22;15458;53.346;-1.688;2023-01-05T05:07:21;8.90;99.90
28171;DHT22;15458;53.346;-1.688;2023-01-05T05:09:47;8.90;99.90
28171;DHT22;15458;53.346;-1.688;2023-01-05T05:12:12;8.90;99.90
28171;DHT22;15458;53.346;-1.688;2023-01-05T05:14:38;8.90;99.90
28171;DHT22;15458;53.346;-1.688;2023-01-05T05:17:04;8.90;99.90
28171;DHT22;15458;53.346;-1.688;2023-01-05T05:19:30;8.90;99.90
28171;DHT22;15458;53.346;-1.688;2023-01-05T05:21:56;8.90;99.90
28171;DHT22;15458;53.346;-1.688;2023-01-05T05:24:22;8.90;99.90
28171;DHT22;15458;53.346;-1.688;2023-01-05T05:26:48;8.90;99.90
28171;DHT22;15458;53.346;-1.688;2023-01-05T05:29:13;9.00;99.90
28171;DHT22;15458;53.346;-1.688;2023-01-05T05:31:39;9.00;99.90
28171;DHT22;15458;53.346;-1.688;2023-01-05T05:34:05;9.00;99.90
28171;DHT22;15458;53.346;-1.688;2023-01-05T05:36:32;9.00;99.90
28171;DHT22;15458;53.346;-1.688;2023-01-05T05:38:57;9.00;99.90
28171;DHT22;15458;53.346;-1.688;2023-01-05T05:41:24;9.10;99.90
28171;DHT22;15458;53.346;-1.688;2023-01-05T05:43:50;9.00;99.90
28171;DHT22;15458;53.346;-1.688;2023-01-05T05:46:15;9.00;99.90
28171;DHT22;15458;53.346;-1.688;2023-01-05T05:48:41;9.00;99.90
28171;DHT22;15458;53.346;-1.688;2023-01-05T05:51:06;9.00;99.90
28171;DHT22;15458;53.346;-1.688;2023-01-05T05:53:32;9.00;99.90
28171;DHT22;15458;53.346;-1.688;2023-01-05T05:55:58;8.90;99.90
28171;DHT22;15458;53.346;-1.688;2023-01-05T05:58:23;8.90;99.90
28171;DHT22;15458;53.346;-1.688;2023-01-05T06:00:49;8.90;99.90
28171;DHT22;15458;53.346;-1.688;2023-01-05T06:03:15;8.90;99.90
28171;DHT22;15458;53.346;-1.688;2023-01-05T06:05:41;8.90;99.90
28171;DHT22;15458;53.346;-1.688;2023-01-05T06:08:06;8.90;99.90
28171;DHT22;15458;53.346;-1.688;2023-01-05T06:10:32;8.90;99.90
28171;DHT22;15458;53.346;-1.688;2023-01-05T06:12:58;8.90;99.90
28171;DHT22;15458;53.346;-1.688;2023-01-05T06:15:23;8.80;99.90
28171;DHT22;15458;53.346;-1.688;2023-01-05T06:17:49;8.80;99.90
28171;DHT22;15458;53.346;-1.688;2023-01-05T06:20:15;8.80;99.90
28171;DHT22;15458;53.346;-1.688;2023-01-05T06:22:42;8.80;99.90
28171;DHT22;15458;53.346;-1.688;2023-01-05T06:25:09;8.80;99.90
28171;DHT22;15458;53.346;-1.688;2023-01-05T06:27:34;8.70;99.90
28171;DHT22;15458;53.346;-1.688;2023-01-05T06:30:00;8.70;99.90
28171;DHT22;15458;53.346;-1.688;2023-01-05T06:32:26;8.70;99.90
28171;DHT22;15458;53.346;-1.688;2023-01-05T06:34:51;8.70;99.90
28171;DHT22;15458;53.346;-1.688;2023-01-05T06:37:17;8.70;99.90
28171;DHT22;15458;53.346;-1.688;2023-01-05T06:39:42;8.70;99.90
28171;DHT22;15458;53.346;-1.688;2023-01-05T06:42:08;8.70;99.90
28171;DHT22;15458;53.346;-1.688;2023-01-05T06:44:34;8.70;99.90
28171;DHT22;15458;53.346;-1.688;2023-01-05T06:47:00;8.70;99.90
28171;DHT22;15458;53.346;-1.688;2023-01-05T06:49:25;8.70;99.90
28171;DHT22;15458;53.346;-1.688;2023-01-05T06:51:51;8.70;99.90
28171;DHT22;15458;53.346;-1.688;2023-01-05T06:54:17;8.70;99.90
28171;DHT22;15458;53.346;-1.688;2023-01-05T06:56:42;8.70;99.90
28171;DHT22;15458;53.346;-1.688;2023-01-05T06:59:10;8.70;99.90
28171;DHT22;15458;53.346;-1.688;2023-01-05T07:01:37;8.70;99.90
28171;DHT22;15458;53.346;-1.688;2023-01-05T07:04:03;8.70;99.90
28171;DHT22;15458;53.346;-1.688;2023-01-05T07:06:29;8.70;99.90
28171;DHT22;15458;53.346;-1.688;2023-01-05T07:08:55;8.70;99.90
28171;DHT22;15458;53.346;-1.688;2023-01-05T07:11:20;8.70;99.90
28171;DHT22;15458;53.346;-1.688;2023-01-05T07:13:47;8.70;99.90
28171;DHT22;15458;53.346;-1.688;2023-01-05T07:16:14;8.70;99.90
28171;DHT22;15458;53.346;-1.688;2023-01-05T07:18:39;8.70;99.90
28171;DHT22;15458;53.346;-1.688;2023-01-05T07:21:05;8.70;99.90
28171;DHT22;15458;53.346;-1.688;2023-01-05T07:23:31;8.70;99.90
28171;DHT22;15458;53.346;-1.688;2023-01-05T07:25:59;8.70;99.90
28171;DHT22;15458;53.346;-1.688;2023-01-05T07:28:25;8.70;99.90
28171;DHT22;15458;53.346;-1.688;2023-01-05T07:30:51;8.70;99.90
28171;DHT22;15458;53.346;-1.688;2023-01-05T07:33:17;8.70;99.90
28171;DHT22;15458;53.346;-1.688;2023-01-05T07:35:43;8.70;99.90
28171;DHT22;15458;53.346;-1.688;2023-01-05T07:38:08;8.60;99.90
28171;DHT22;15458;53.346;-1.688;2023-01-05T07:40:35;8.60;99.90
28171;DHT22;15458;53.346;-1.688;2023-01-05T07:43:00;8.60;99.90
28171;DHT22;15458;53.346;-1.688;2023-01-05T07:45:27;8.60;99.90
28171;DHT22;15458;53.346;-1.688;2023-01-05T07:47:52;8.60;99.90
28171;DHT22;15458;53.346;-1.688;2023-01-05T07:50:18;8.60;99.90
28171;DHT22;15458;53.346;-1.688;2023-01-05T07:52:44;8.50;99.90
28171;DHT22;15458;53.346;-1.688;2023-01-05T07:55:09;8.50;99.90
28171;DHT22;15458;53.346;-1.688;2023-01-05T07:57:35;8.50;99.90
28171;DHT22;15458;53.346;-1.688;2023-01-05T08:00:01;8.50;99.90
28171;DHT22;15458;53.346;-1.688;2023-01-05T08:02:27;8.50;99.90
28171;DHT22;15458;53.346;-1.688;2023-01-05T08:04:52;8.50;99.90
28171;DHT22;15458;53.346;-1.688;2023-01-05T08:07:18;8.50;99.90
28171;DHT22;15458;53.346;-1.688;2023-01-05T08:09:44;8.50;99.90
28171;DHT22;15458;53.346;-1.688;2023-01-05T08:12:28;8.50;99.90
28171;DHT22;15458;53.346;-1.688;2023-01-05T08:14:55;8.50;99.90
28171;DHT22;15458;53.346;-1.688;2023-01-05T08:17:21;8.50;99.90
28171;DHT22;15458;53.346;-1.688;2023-01-05T08:19:46;8.50;99.90
28171;DHT22;15458;53.346;-1.688;2023-01-05T08:22:12;8.50;99.90
28171;DHT22;15458;53.346;-1.688;2023-01-05T08:24:38;8.50;99.90
28171;DHT22;15458;53.346;-1.688;2023-01-05T08:27:03;8.50;99.90
28171;DHT22;15458;53.346;-1.688;2023-01-05T08:29:29;8.50;99.90
28171;DHT22;15458;53.346;-1.688;2023-01-05T08:31:55;8.50;99.90
28171;DHT22;15458;53.346;-1.688;2023-01-05T08:34:20;8.50;99.90
28171;DHT22;15458;53.346;-1.688;2023-01-05T08:36:46;8.50;99.90
28171;DHT22;15458;53.346;-1.688;2023-01-05T08:39:12;8.50;99.90
28171;DHT22;15458;53.346;-1.688;2023-01-05T08:41:39;8.50;99.90
28171;DHT22;15458;53.346;-1.688;2023-01-05T08:44:09;8.50;99.90
28171;DHT22;15458;53.346;-1.688;2023-01-05T08:46:35;8.40;99.90
28171;DHT22;15458;53.346;-1.688;2023-01-05T08:49:04;8.50;99.90
28171;DHT22;15458;53.346;-1.688;2023-01-05T08:51:30;8.50;99.90
28171;DHT22;15458;53.346;-1.688;2023-01-05T08:53:56;8.50;99.90
28171;DHT22;15458;53.346;-1.688;2023-01-05T08:56:23;8.50;99.90
28171;DHT22;15458;53.346;-1.688;2023-01-05T08:58:50;8.50;99.90
28171;DHT22;15458;53.346;-1.688;2023-01-05T09:01:18;8.50;99.90
28171;DHT22;15458;53.346;-1.688;2023-01-05T09:03:46;8.50;99.90
28171;DHT22;15458;53.346;-1.688;2023-01-05T09:06:12;8.40;99.90
28171;DHT22;15458;53.346;-1.688;2023-01-05T09:08:39;8.40;99.90
28171;DHT22;15458;53.346;-1.688;2023-01-05T09:11:07;8.40;99.90
28171;DHT22;15458;53.346;-1.688;2023-01-05T09:13:34;8.40;99.90
28171;DHT22;15458;53.346;-1.688;2023-01-05T09:16:08;8.30;99.90
28171;DHT22;15458;53.346;-1.688;2023-01-05T09:18:35;8.40;99.90
28171;DHT22;15458;53.346;-1.688;2023-01-05T09:21:01;8.30;99.90
28171;DHT22;15458;53.346;-1.688;2023-01-05T09:23:27;8.30;99.90
28171;DHT22;15458;53.346;-1.688;2023-01-05T09:25:52;8.30;99.90
28171;DHT22;15458;53.346;-1.688;2023-01-05T09:28:18;8.30;99.90
28171;DHT22;15458;53.346;-1.688;2023-01-05T09:30:44;8.30;99.90
28171;DHT22;15458;53.346;-1.688;2023-01-05T09:33:12;8.30;99.90
28171;DHT22;15458;53.346;-1.688;2023-01-05T09:35:38;8.20;99.90
28171;DHT22;15458;53.346;-1.688;2023-01-05T09:38:03;8.30;99.90
28171;DHT22;15458;53.346;-1.688;2023-01-05T09:40:31;8.30;99.90
28171;DHT22;15458;53.346;-1.688;2023-01-05T09:42:59;8.20;99.90
28171;DHT22;15458;53.346;-1.688;2023-01-05T09:45:26;8.30;99.90
28171;DHT22;15458;53.346;-1.688;2023-01-05T09:47:54;8.20;99.90
28171;DHT22;15458;53.346;-1.688;2023-01-05T09:50:25;8.20;99.90
28171;DHT22;15458;53.346;-1.688;2023-01-05T09:52:53;8.20;99.90
28171;DHT22;15458;53.346;-1.688;2023-01-05T09:55:24;8.30;99.90
28171;DHT22;15458;53.346;-1.688;2023-01-05T09:57:59;8.20;99.90
28171;DHT22;15458;53.346;-1.688;2023-01-05T10:00:27;8.30;99.90
28171;DHT22;15458;53.346;-1.688;2023-01-05T10:05:25;8.30;99.90
28171;DHT22;15458;53.346;-1.688;2023-01-05T10:07:59;8.30;99.90
28171;DHT22;15458;53.346;-1.688;2023-01-05T10:13:33;8.30;99.90
28171;DHT22;15458;53.346;-1.688;2023-01-05T10:16:01;8.30;99.90
28171;DHT22;15458;53.346;-1.688;2023-01-05T10:18:29;8.30;99.90
28171;DHT22;15458;53.346;-1.688;2023-01-05T10:24:02;8.30;99.90
28171;DHT22;15458;53.346;-1.688;2023-01-05T10:26:25;8.30;99.90
28171;DHT22;15458;53.346;-1.688;2023-01-05T10:29:02;8.30;99.90
28171;DHT22;15458;53.346;-1.688;2023-01-05T10:31:46;8.30;99.90
28171;DHT22;15458;53.346;-1.688;2023-01-05T10:39:59;8.40;99.90
28171;DHT22;15458;53.346;-1.688;2023-01-05T10:45:28;8.40;99.90
28171;DHT22;15458;53.346;-1.688;2023-01-05T10:47:54;8.40;99.90
28171;DHT22;15458;53.346;-1.688;2023-01-05T10:50:27;8.50;99.90
28171;DHT22;15458;53.346;-1.688;2023-01-05T10:52:55;8.50;99.90
28171;DHT22;15458;53.346;-1.688;2023-01-05T10:55:22;8.60;99.90
28171;DHT22;15458;53.346;-1.688;2023-01-05T10:57:48;8.60;99.90
28171;DHT22;15458;53.346;-1.688;2023-01-05T11:00:19;8.60;99.90
28171;DHT22;15458;53.346;-1.688;2023-01-05T11:07:57;8.80;99.90
28171;DHT22;15458;53.346;-1.688;2023-01-05T11:10:35;8.90;99.90
28171;DHT22;15458;53.346;-1.688;2023-01-05T11:13:37;8.90;99.90
28171;DHT22;15458;53.346;-1.688;2023-01-05T11:21:17;9.10;99.90
28171;DHT22;15458;53.346;-1.688;2023-01-05T11:26:26;9.20;99.90
28171;DHT22;15458;53.346;-1.688;2023-01-05T11:31:59;9.30;99.90
28171;DHT22;15458;53.346;-1.688;2023-01-05T11:34:46;9.50;99.90
28171;DHT22;15458;53.346;-1.688;2023-01-05T11:37:30;9.50;99.90
28171;DHT22;15458;53.346;-1.688;2023-01-05T11:40:13;9.60;99.90
28171;DHT22;15458;53.346;-1.688;2023-01-05T11:42:39;9.70;99.90
28171;DHT22;15458;53.346;-1.688;2023-01-05T11:48:21;9.80;99.90
28171;DHT22;15458;53.346;-1.688;2023-01-05T11:50:49;10.00;99.90
28171;DHT22;15458;53.346;-1.688;2023-01-05T11:53:36;10.10;99.90
28171;DHT22;15458;53.346;-1.688;2023-01-05T11:58:45;10.30;99.90
28171;DHT22;15458;53.346;-1.688;2023-01-05T12:09:30;10.50;99.90
28171;DHT22;15458;53.346;-1.688;2023-01-05T12:15:33;10.60;99.90
28171;DHT22;15458;53.346;-1.688;2023-01-05T12:18:17;10.60;99.90
28171;DHT22;15458;53.346;-1.688;2023-01-05T12:20:55;10.70;99.90
28171;DHT22;15458;53.346;-1.688;2023-01-05T12:48:16;10.90;99.90
28171;DHT22;15458;53.346;-1.688;2023-01-05T12:51:10;10.90;99.90
28171;DHT22;15458;53.346;-1.688;2023-01-05T12:57:14;10.90;99.90
28171;DHT22;15458;53.346;-1.688;2023-01-05T12:59:51;10.90;99.90
28171;DHT22;15458;53.346;-1.688;2023-01-05T13:05:13;10.90;99.90
28171;DHT22;15458;53.346;-1.688;2023-01-05T13:08:14;10.90;99.90
28171;DHT22;15458;53.346;-1.688;2023-01-05T13:11:05;10.90;99.90
28171;DHT22;15458;53.346;-1.688;2023-01-05T13:13:49;10.90;99.90
28171;DHT22;15458;53.346;-1.688;2023-01-05T13:19:42;10.80;99.90
28171;DHT22;15458;53.346;-1.688;2023-01-05T13:22:25;10.80;99.90
28171;DHT22;15458;53.346;-1.688;2023-01-05T13:27:59;10.80;99.90
28171;DHT22;15458;53.346;-1.688;2023-01-05T13:30:28;10.80;99.90
28171;DHT22;15458;53.346;-1.688;2023-01-05T13:41:23;10.90;99.90
28171;DHT22;15458;53.346;-1.688;2023-01-05T13:46:47;10.90;99.90
28171;DHT22;15458;53.346;-1.688;2023-01-05T13:51:58;11.00;99.90
28171;DHT22;15458;53.346;-1.688;2023-01-05T13:54:36;11.00;99.90
28171;DHT22;15458;53.346;-1.688;2023-01-05T13:57:12;11.00;99.90
28171;DHT22;15458;53.346;-1.688;2023-01-05T13:59:38;11.00;99.90
28171;DHT22;15458;53.346;-1.688;2023-01-05T14:02:30;11.00;99.90
28171;DHT22;15458;53.346;-1.688;2023-01-05T14:04:58;11.00;99.90
28171;DHT22;15458;53.346;-1.688;2023-01-05T14:07:25;11.00;99.90
28171;DHT22;15458;53.346;-1.688;2023-01-05T14:09:56;10.90;99.90
28171;DHT22;15458;53.346;-1.688;2023-01-05T14:12:25;10.90;99.90
28171;DHT22;15458;53.346;-1.688;2023-01-05T14:38:52;10.90;99.90
28171;DHT22;15458;53.346;-1.688;2023-01-05T14:41:21;10.90;99.90
28171;DHT22;15458;53.346;-1.688;2023-01-05T14:44:04;10.90;99.90
28171;DHT22;15458;53.346;-1.688;2023-01-05T14:46:52;10.90;99.90
28171;DHT22;15458;53.346;-1.688;2023-01-05T14:49:30;10.90;99.90
28171;DHT22;15458;53.346;-1.688;2023-01-05T14:51:58;10.90;99.90
28171;DHT22;15458;53.346;-1.688;2023-01-05T14:59:59;10.90;99.90
28171;DHT22;15458;53.346;-1.688;2023-01-05T15:02:30;10.80;99.90
28171;DHT22;15458;53.346;-1.688;2023-01-05T15:05:02;10.80;99.90
28171;DHT22;15458;53.346;-1.688;2023-01-05T15:25:12;10.70;99.90
28171;DHT22;15458;53.346;-1.688;2023-01-05T15:32:44;10.70;99.90
28171;DHT22;15458;53.346;-1.688;2023-01-05T15:35:37;10.70;99.90
28171;DHT22;15458;53.346;-1.688;2023-01-05T15:38:43;10.70;99.90
28171;DHT22;15458;53.346;-1.688;2023-01-05T15:41:12;10.70;99.90
28171;DHT22;15458;53.346;-1.688;2023-01-05T15:43:44;10.70;99.90
28171;DHT22;15458;53.346;-1.688;2023-01-05T15:46:10;10.70;99.90
28171;DHT22;15458;53.346;-1.688;2023-01-05T15:48:41;10.70;99.90
28171;DHT22;15458;53.346;-1.688;2023-01-05T15:51:08;10.60;99.90
28171;DHT22;15458;53.346;-1.688;2023-01-05T15:53:37;10.70;99.90
28171;DHT22;15458;53.346;-1.688;2023-01-05T15:56:44;10.60;99.90
28171;DHT22;15458;53.346;-1.688;2023-01-05T16:01:49;10.60;99.90
28171;DHT22;15458;53.346;-1.688;2023-01-05T16:04:15;10.50;99.90
28171;DHT22;15458;53.346;-1.688;2023-01-05T16:06:51;10.50;99.90
28171;DHT22;15458;53.346;-1.688;2023-01-05T16:09:33;10.50;99.90
28171;DHT22;15458;53.346;-1.688;2023-01-05T16:12:14;10.50;99.90
28171;DHT22;15458;53.346;-1.688;2023-01-05T16:14:53;10.50;99.90
28171;DHT22;15458;53.346;-1.688;2023-01-05T16:17:24;10.50;99.90
28171;DHT22;15458;53.346;-1.688;2023-01-05T16:22:48;10.50;99.90
28171;DHT22;15458;53.346;-1.688;2023-01-05T16:25:29;10.50;99.90
28171;DHT22;15458;53.346;-1.688;2023-01-05T16:27:58;10.50;99.90
28171;DHT22;15458;53.346;-1.688;2023-01-05T16:30:37;10.50;99.90
28171;DHT22;15458;53.346;-1.688;2023-01-05T16:36:19;10.40;99.90
28171;DHT22;15458;53.346;-1.688;2023-01-05T16:38:38;10.50;99.90
28171;DHT22;15458;53.346;-1.688;2023-01-05T16:41:21;10.50;99.90
28171;DHT22;15458;53.346;-1.688;2023-01-05T16:44:00;10.50;99.90
28171;DHT22;15458;53.346;-1.688;2023-01-05T16:46:32;10.50;99.90
28171;DHT22;15458;53.346;-1.688;2023-01-05T16:51:40;10.50;99.90
28171;DHT22;15458;53.346;-1.688;2023-01-05T16:54:12;10.50;99.90
28171;DHT22;15458;53.346;-1.688;2023-01-05T16:56:50;10.50;99.90
28171;DHT22;15458;53.346;-1.688;2023-01-05T16:59:41;10.40;99.90
28171;DHT22;15458;53.346;-1.688;2023-01-05T17:04:54;10.40;99.90
28171;DHT22;15458;53.346;-1.688;2023-01-05T17:07:19;10.40;99.90
28171;DHT22;15458;53.346;-1.688;2023-01-05T17:09:45;10.40;99.90
28171;DHT22;15458;53.346;-1.688;2023-01-05T17:12:11;10.50;99.90
28171;DHT22;15458;53.346;-1.688;2023-01-05T17:14:38;10.40;99.90
28171;DHT22;15458;53.346;-1.688;2023-01-05T17:17:08;10.40;99.90
28171;DHT22;15458;53.346;-1.688;2023-01-05T17:19:38;10.40;99.90
28171;DHT22;15458;53.346;-1.688;2023-01-05T17:22:05;10.40;99.90
28171;DHT22;15458;53.346;-1.688;2023-01-05T17:24:32;10.40;99.90
28171;DHT22;15458;53.346;-1.688;2023-01-05T17:26:58;10.40;99.90
28171;DHT22;15458;53.346;-1.688;2023-01-05T17:29:26;10.40;99.90
28171;DHT22;15458;53.346;-1.688;2023-01-05T17:31:53;10.40;99.90
28171;DHT22;15458;53.346;-1.688;2023-01-05T17:34:19;10.40;99.90
28171;DHT22;15458;53.346;-1.688;2023-01-05T17:36:47;10.40;99.90
28171;DHT22;15458;53.346;-1.688;2023-01-05T17:39:14;10.40;99.90
28171;DHT22;15458;53.346;-1.688;2023-01-05T17:41:41;10.40;99.90
28171;DHT22;15458;53.346;-1.688;2023-01-05T17:44:06;10.40;99.90
28171;DHT22;15458;53.346;-1.688;2023-01-05T17:46:35;10.40;99.90
28171;DHT22;15458;53.346;-1.688;2023-01-05T17:49:02;10.40;99.90
28171;DHT22;15458;53.346;-1.688;2023-01-05T17:51:29;10.40;99.90
28171;DHT22;15458;53.346;-1.688;2023-01-05T17:53:56;10.40;99.90
28171;DHT22;15458;53.346;-1.688;2023-01-05T17:56:22;10.40;99.90
28171;DHT22;15458;53.346;-1.688;2023-01-05T17:58:48;10.40;99.90
28171;DHT22;15458;53.346;-1.688;2023-01-05T18:01:14;10.40;99.90
28171;DHT22;15458;53.346;-1.688;2023-01-05T18:03:40;10.40;99.90
28171;DHT22;15458;53.346;-1.688;2023-01-05T18:06:06;10.40;99.90
28171;DHT22;15458;53.346;-1.688;2023-01-05T18:08:34;10.30;99.90
28171;DHT22;15458;53.346;-1.688;2023-01-05T18:11:06;10.40;99.90
28171;DHT22;15458;53.346;-1.688;2023-01-05T18:13:33;10.40;99.90
28171;DHT22;15458;53.346;-1.688;2023-01-05T18:16:05;10.40;99.90
28171;DHT22;15458;53.346;-1.688;2023-01-05T18:18:30;10.40;99.90
28171;DHT22;15458;53.346;-1.688;2023-01-05T18:20:59;10.40;99.90
28171;DHT22;15458;53.346;-1.688;2023-01-05T18:23:25;10.40;99.90
28171;DHT22;15458;53.346;-1.688;2023-01-05T18:25:51;10.30;99.90
28171;DHT22;15458;53.346;-1.688;2023-01-05T18:28:16;10.30;99.90
28171;DHT22;15458;53.346;-1.688;2023-01-05T18:30:43;10.30;99.90
28171;DHT22;15458;53.346;-1.688;2023-01-05T18:33:09;10.30;99.90
28171;DHT22;15458;53.346;-1.688;2023-01-05T18:35:34;10.30;99.90
28171;DHT22;15458;53.346;-1.688;2023-01-05T18:38:05;10.30;99.90
28171;DHT22;15458;53.346;-1.688;2023-01-05T18:40:31;10.30;99.90
28171;DHT22;15458;53.346;-1.688;2023-01-05T18:42:56;10.30;99.90
28171;DHT22;15458;53.346;-1.688;2023-01-05T18:45:22;10.30;99.90
28171;DHT22;15458;53.346;-1.688;2023-01-05T18:47:48;10.30;99.90
28171;DHT22;15458;53.346;-1.688;2023-01-05T18:50:14;10.30;99.90
28171;DHT22;15458;53.346;-1.688;2023-01-05T18:52:39;10.30;99.90
28171;DHT22;15458;53.346;-1.688;2023-01-05T18:55:05;10.30;99.90